ROMMA est une association bénévole à but non lucratif. Votre soutien est indispensable : ADHERER à ROMMA ou FAIRE un DON

Chélieu - (38, Isère)

Terres Froides (550 m)   Longitude: 5° 28' 48.00" E   Latitude: 45° 31' 02.39"N Station partenaire n°44
 

Détail journalier du     <<     >>

Température Precipitation Humidité Pression Vent Dir Rafale Dir. rafale
Heure (°C) (mm) (%) (hPa) (km/h) (km/h)
01:00 16.307510068SO24OSO
02:00 15.907310068OSO19SO
03:00 15.407610068OSO23O
04:00 15.307510063SO15O
05:00 13.607910051NE10SO
06:00 16.806610063S18S
07:00 16.806710052SSO15S
08:00 17.606310053S16S
09:00 18.505810055S23S
10:00 19.805110068S32S
11:00 21.4041100611S34SO
12:00 21.9043100514S42S
13:00 21.804610059SO29SO
14:00 22.9036100414SSO45S
15:00 23.8035100415SSO42SO
16:00 23.6035100313SSO39S
17:00 23.5036100414SSO39S
18:00 23.1036100419SSO55SO
19:00 22.6035100415S40S
20:00 22.1037100615S48OSO
21:00 14.1073100818ONO48OSO
22:00 13.107910095NNE18NNE
23:00 12.71.886100905NNE
minuit 13.65.39210103NNE18OSO

Graphique du 20-10-2019

 

Serveur OMMA